createdAt,value
2017-05-31T00:01:58.610Z,17.00
2017-05-31T00:04:25.330Z,17.00
2017-05-31T00:06:52.074Z,17.00
2017-05-31T00:09:18.810Z,17.10
2017-05-31T00:11:45.514Z,17.10
2017-05-31T00:14:12.234Z,17.20
2017-05-31T00:16:38.958Z,17.20
2017-05-31T00:19:05.669Z,17.20
2017-05-31T00:21:32.386Z,17.20
2017-05-31T00:23:59.065Z,17.30
2017-05-31T00:26:25.798Z,17.40
2017-05-31T00:28:52.518Z,17.40
2017-05-31T00:31:19.222Z,17.40
2017-05-31T00:33:45.992Z,17.40
2017-05-31T00:36:12.710Z,17.50
2017-05-31T00:38:39.393Z,17.50
2017-05-31T00:41:06.145Z,17.50
2017-05-31T00:43:32.833Z,17.50
2017-05-31T00:45:59.522Z,17.50
2017-05-31T00:48:26.278Z,17.50
2017-05-31T00:50:52.970Z,17.50
2017-05-31T00:53:19.663Z,17.50
2017-05-31T00:55:46.449Z,17.50
2017-05-31T00:58:13.157Z,17.50
2017-05-31T01:00:39.847Z,17.50
2017-05-31T01:03:06.567Z,17.50
2017-05-31T01:05:33.261Z,17.50
2017-05-31T01:07:59.994Z,17.50
2017-05-31T01:10:26.686Z,17.50
2017-05-31T01:12:53.394Z,17.50
2017-05-31T01:15:20.126Z,17.50
2017-05-31T01:17:46.826Z,17.50
2017-05-31T01:20:12.866Z,17.50
2017-05-31T01:22:39.613Z,17.50
2017-05-31T01:25:06.322Z,17.50
2017-05-31T01:27:33.114Z,17.50
2017-05-31T01:29:59.902Z,17.50
2017-05-31T01:32:26.594Z,17.40
2017-05-31T01:34:53.284Z,17.50
2017-05-31T01:37:20.015Z,17.50
2017-05-31T01:39:46.706Z,17.50
2017-05-31T01:42:13.483Z,17.50
2017-05-31T01:44:40.170Z,17.50
2017-05-31T01:47:06.878Z,17.50
2017-05-31T01:49:33.610Z,17.50
2017-05-31T01:52:00.322Z,17.50
2017-05-31T01:54:27.034Z,17.60
2017-05-31T01:56:53.766Z,17.60
2017-05-31T01:59:20.466Z,17.60
2017-05-31T02:01:47.181Z,17.50
2017-05-31T02:04:13.932Z,17.60
2017-05-31T02:06:40.631Z,17.50
2017-05-31T02:09:07.369Z,17.50
2017-05-31T02:11:34.070Z,17.50
2017-05-31T02:14:00.785Z,17.50
2017-05-31T02:16:27.570Z,17.50
2017-05-31T02:18:54.301Z,17.50
2017-05-31T02:21:21.003Z,17.40
2017-05-31T02:23:47.782Z,17.40
2017-05-31T02:26:14.495Z,17.40
2017-05-31T02:28:41.211Z,17.40
2017-05-31T02:31:07.966Z,17.40
2017-05-31T02:33:34.671Z,17.40
2017-05-31T02:36:01.366Z,17.50
2017-05-31T02:38:28.102Z,17.50
2017-05-31T02:40:54.806Z,17.50
2017-05-31T02:43:21.504Z,17.50
2017-05-31T02:45:48.287Z,17.50
2017-05-31T02:48:15.001Z,17.50
2017-05-31T02:50:41.774Z,17.50
2017-05-31T02:53:08.470Z,17.50
2017-05-31T02:55:35.170Z,17.50
2017-05-31T02:58:01.907Z,17.50
2017-05-31T03:00:28.677Z,17.60
2017-05-31T03:02:55.370Z,17.60
2017-05-31T03:05:22.067Z,17.60
2017-05-31T03:07:48.818Z,17.60
2017-05-31T03:10:15.547Z,17.60
2017-05-31T03:12:42.298Z,17.60
2017-05-31T03:15:08.997Z,17.60
2017-05-31T03:17:35.734Z,17.50
2017-05-31T03:20:02.428Z,17.50
2017-05-31T03:22:29.491Z,17.50
2017-05-31T03:24:56.199Z,17.50
2017-05-31T03:27:22.890Z,17.50
2017-05-31T03:29:49.614Z,17.50
2017-05-31T03:32:16.306Z,17.50
2017-05-31T03:34:43.038Z,17.60
2017-05-31T03:37:09.726Z,17.60
2017-05-31T03:39:36.466Z,17.60
2017-05-31T03:42:03.226Z,17.60
2017-05-31T03:44:29.951Z,17.60
2017-05-31T03:46:56.647Z,17.60
2017-05-31T03:49:23.386Z,17.60
2017-05-31T03:51:50.127Z,17.70
2017-05-31T03:54:16.819Z,17.70
2017-05-31T03:56:43.513Z,17.70
2017-05-31T03:59:10.281Z,17.70
2017-05-31T04:01:36.971Z,17.70
2017-05-31T04:04:03.679Z,17.70
2017-05-31T04:06:30.434Z,17.70
2017-05-31T04:08:57.146Z,17.70
2017-05-31T04:11:23.846Z,17.70
2017-05-31T04:13:50.578Z,17.70
2017-05-31T04:16:17.270Z,17.70
2017-05-31T04:18:44.013Z,17.70
2017-05-31T04:21:10.706Z,17.70
2017-05-31T04:23:37.438Z,17.80
2017-05-31T04:26:04.175Z,17.70
2017-05-31T04:28:30.885Z,17.70
2017-05-31T04:30:57.610Z,17.70
2017-05-31T04:33:24.374Z,17.70
2017-05-31T04:35:51.079Z,17.70
2017-05-31T04:38:19.838Z,17.80
2017-05-31T04:40:46.554Z,17.80
2017-05-31T04:43:13.262Z,17.80
2017-05-31T04:45:39.998Z,17.80
2017-05-31T04:48:06.706Z,17.80
2017-05-31T04:50:33.439Z,17.90
2017-05-31T04:53:00.191Z,17.80
2017-05-31T04:55:33.991Z,17.80
2017-05-31T04:58:00.743Z,17.80
2017-05-31T05:00:27.449Z,17.80
2017-05-31T05:02:54.146Z,17.80
2017-05-31T05:05:20.900Z,17.80
2017-05-31T05:07:47.590Z,17.90
2017-05-31T05:10:14.331Z,17.80
2017-05-31T05:12:41.066Z,17.80
2017-05-31T05:15:07.768Z,17.70
2017-05-31T05:17:34.491Z,17.70
2017-05-31T05:20:01.252Z,17.70
2017-05-31T05:22:28.096Z,17.60
2017-05-31T05:24:54.791Z,17.70
2017-05-31T05:27:21.496Z,17.70
2017-05-31T05:29:48.235Z,17.70
2017-05-31T05:32:14.934Z,17.60
2017-05-31T05:34:41.634Z,17.60
2017-05-31T05:37:08.382Z,17.50
2017-05-31T05:39:35.090Z,17.50
2017-05-31T05:42:01.823Z,17.50
2017-05-31T05:44:28.582Z,17.60
2017-05-31T05:46:55.277Z,17.50
2017-05-31T05:49:22.372Z,17.50
2017-05-31T05:51:49.065Z,17.60
2017-05-31T05:54:15.762Z,17.60
2017-05-31T05:56:42.490Z,17.80
2017-05-31T05:59:09.182Z,17.80
2017-05-31T06:01:35.961Z,17.70
2017-05-31T06:04:02.671Z,17.70
2017-05-31T06:06:29.386Z,17.70
2017-05-31T06:08:56.126Z,17.80
2017-05-31T06:11:22.825Z,17.80
2017-05-31T06:13:49.526Z,17.90
2017-05-31T06:16:16.266Z,17.80
2017-05-31T06:18:42.958Z,17.80
2017-05-31T06:21:09.671Z,17.90
2017-05-31T06:23:36.434Z,17.80
2017-05-31T06:26:03.143Z,17.80
2017-05-31T06:28:29.872Z,17.90
2017-05-31T06:30:56.611Z,18.00
2017-05-31T06:33:23.310Z,18.00
2017-05-31T06:35:50.093Z,18.00
2017-05-31T06:38:16.774Z,18.00
2017-05-31T06:40:43.467Z,18.10
2017-05-31T06:43:10.222Z,18.10
2017-05-31T06:45:36.948Z,18.20
2017-05-31T06:48:10.638Z,18.30
2017-05-31T06:50:37.338Z,18.40
2017-05-31T06:53:04.078Z,18.30
2017-05-31T06:55:30.822Z,18.30
2017-05-31T06:57:57.538Z,18.20
2017-05-31T07:00:24.282Z,18.10
2017-05-31T07:02:50.980Z,18.20
2017-05-31T07:05:17.685Z,18.10
2017-05-31T07:07:44.422Z,18.10
2017-05-31T07:10:11.125Z,18.30
2017-05-31T07:12:37.822Z,18.30
2017-05-31T07:15:04.579Z,18.40
2017-05-31T07:17:31.338Z,18.40
2017-05-31T07:19:58.118Z,18.30
2017-05-31T07:22:24.806Z,18.30
2017-05-31T07:24:51.498Z,18.30
2017-05-31T07:27:18.254Z,18.20
2017-05-31T07:29:44.946Z,18.10
2017-05-31T07:32:11.648Z,18.00
2017-05-31T07:34:38.731Z,17.90
2017-05-31T07:37:05.426Z,18.00
2017-05-31T07:39:32.131Z,18.00
2017-05-31T07:41:58.942Z,18.10
2017-05-31T07:44:25.637Z,18.10
2017-05-31T07:46:52.426Z,18.20
2017-05-31T07:49:19.247Z,18.30
2017-05-31T07:51:45.950Z,18.40
2017-05-31T07:54:12.646Z,18.30
2017-05-31T07:56:39.370Z,18.40
2017-05-31T07:59:06.070Z,18.40
2017-05-31T08:01:32.816Z,18.40
2017-05-31T08:03:59.705Z,18.50
2017-05-31T08:06:26.409Z,18.70
2017-05-31T08:08:53.110Z,18.70
2017-05-31T08:11:19.830Z,19.00
2017-05-31T08:13:46.546Z,19.00
2017-05-31T08:16:13.278Z,18.90
2017-05-31T08:18:40.094Z,18.80
2017-05-31T08:21:06.778Z,18.70
2017-05-31T08:23:33.521Z,18.50
2017-05-31T08:26:00.230Z,18.50
2017-05-31T08:28:26.930Z,18.50
2017-05-31T08:30:53.653Z,18.70
2017-05-31T08:33:20.343Z,18.70
2017-05-31T08:35:47.038Z,18.70
2017-05-31T08:38:13.778Z,18.80
2017-05-31T08:40:40.474Z,18.90
2017-05-31T08:43:07.163Z,18.90
2017-05-31T08:45:33.911Z,19.10
2017-05-31T08:48:00.639Z,19.10
2017-05-31T08:50:27.459Z,19.10
2017-05-31T08:52:54.156Z,19.20
2017-05-31T08:55:20.850Z,19.20
2017-05-31T08:57:47.578Z,19.10
2017-05-31T09:00:14.266Z,18.90
2017-05-31T09:02:40.959Z,18.90
2017-05-31T09:05:07.774Z,19.00
2017-05-31T09:07:34.538Z,18.90
2017-05-31T09:10:01.245Z,19.10
2017-05-31T09:12:27.972Z,19.10
2017-05-31T09:14:54.712Z,19.20
2017-05-31T09:17:21.402Z,19.30
2017-05-31T09:19:48.119Z,19.40
2017-05-31T09:22:14.862Z,19.60
2017-05-31T09:24:41.562Z,19.70
2017-05-31T09:27:08.323Z,19.70
2017-05-31T09:29:35.078Z,19.80
2017-05-31T09:32:01.821Z,19.80
2017-05-31T09:34:28.526Z,19.70
2017-05-31T09:36:55.255Z,19.60
2017-05-31T09:39:21.962Z,19.60
2017-05-31T09:41:48.690Z,19.80
2017-05-31T09:44:15.378Z,19.90
2017-05-31T09:46:42.067Z,20.10
2017-05-31T09:49:08.798Z,20.10
2017-05-31T09:51:35.502Z,20.00
2017-05-31T09:54:02.298Z,20.00
2017-05-31T09:56:29.078Z,20.00
2017-05-31T09:58:55.770Z,20.10
2017-05-31T10:01:22.462Z,20.10
2017-05-31T10:03:49.206Z,20.30
2017-05-31T10:06:15.931Z,20.40
2017-05-31T10:08:42.622Z,20.30
2017-05-31T10:11:09.374Z,20.30
2017-05-31T10:13:36.073Z,20.30
2017-05-31T10:16:02.770Z,20.50
2017-05-31T10:18:29.512Z,20.60
2017-05-31T10:20:56.250Z,20.90
2017-05-31T10:23:22.986Z,20.80
2017-05-31T10:25:49.687Z,20.80
2017-05-31T10:28:16.394Z,20.90
2017-05-31T10:30:43.139Z,20.80
2017-05-31T10:33:09.834Z,20.90
2017-05-31T10:35:36.554Z,20.90
2017-05-31T10:38:03.286Z,20.90
2017-05-31T10:40:30.006Z,20.70
2017-05-31T10:42:56.734Z,20.80
2017-05-31T10:45:23.430Z,20.90
2017-05-31T10:47:50.190Z,21.10
2017-05-31T10:50:16.890Z,21.10
2017-05-31T10:52:43.590Z,21.30
2017-05-31T10:55:10.402Z,21.50
2017-05-31T10:57:37.095Z,21.60
2017-05-31T11:00:03.818Z,21.50
2017-05-31T11:02:30.703Z,21.40
2017-05-31T11:04:57.410Z,21.60
2017-05-31T11:07:24.098Z,21.70
2017-05-31T11:09:50.830Z,21.40
2017-05-31T11:12:17.518Z,21.40
2017-05-31T11:14:44.223Z,21.30
2017-05-31T11:17:10.990Z,21.10
2017-05-31T11:19:37.678Z,21.10
2017-05-31T11:22:04.379Z,21.20
2017-05-31T11:24:30.379Z,21.20
2017-05-31T11:26:57.177Z,21.20
2017-05-31T11:29:23.866Z,21.30
2017-05-31T11:31:50.650Z,21.40
2017-05-31T11:34:17.343Z,21.70
2017-05-31T11:36:44.086Z,22.00
2017-05-31T11:39:10.822Z,22.10
2017-05-31T11:41:37.562Z,22.00
2017-05-31T11:44:04.254Z,21.80
2017-05-31T11:46:30.998Z,21.60
2017-05-31T11:48:57.690Z,21.80
2017-05-31T11:51:24.434Z,21.90
2017-05-31T11:53:51.155Z,22.00
2017-05-31T11:56:17.102Z,22.10
2017-05-31T11:58:43.830Z,22.10
2017-05-31T12:01:10.519Z,22.10
2017-05-31T12:03:37.207Z,22.20
2017-05-31T12:06:03.953Z,22.30
2017-05-31T12:08:30.763Z,22.40
2017-05-31T12:10:57.450Z,22.90
2017-05-31T12:13:24.194Z,22.80
2017-05-31T12:15:50.887Z,22.90
2017-05-31T12:18:17.586Z,22.90
2017-05-31T12:20:44.323Z,22.70
2017-05-31T12:23:11.021Z,22.60
2017-05-31T12:25:37.706Z,22.50
2017-05-31T12:28:04.466Z,22.10
2017-05-31T12:30:31.190Z,22.20
2017-05-31T12:32:57.882Z,22.50
2017-05-31T12:35:24.690Z,22.40
2017-05-31T12:37:51.386Z,22.20
2017-05-31T12:40:18.078Z,22.20
2017-05-31T12:42:44.893Z,21.90
2017-05-31T12:45:11.598Z,22.10
2017-05-31T12:47:38.327Z,22.30
2017-05-31T12:50:05.015Z,22.20
2017-05-31T12:52:31.790Z,22.20
2017-05-31T12:54:58.563Z,22.10
2017-05-31T12:57:25.258Z,22.70
2017-05-31T12:59:52.014Z,23.60
2017-05-31T13:02:18.702Z,24.20
2017-05-31T13:04:45.443Z,24.10
2017-05-31T13:07:12.138Z,24.60
2017-05-31T13:09:38.874Z,25.10
2017-05-31T13:12:05.573Z,25.70
2017-05-31T13:14:32.276Z,25.20
2017-05-31T13:16:59.087Z,25.70
2017-05-31T13:19:25.775Z,25.70
2017-05-31T13:21:52.478Z,25.50
2017-05-31T13:24:19.198Z,25.20
2017-05-31T13:26:45.943Z,25.80
2017-05-31T13:29:12.670Z,26.30
2017-05-31T13:31:39.418Z,26.60
2017-05-31T13:34:06.106Z,27.00
2017-05-31T13:36:32.847Z,26.40
2017-05-31T13:38:59.550Z,25.80
2017-05-31T13:41:26.242Z,25.30
2017-05-31T13:43:52.980Z,25.30
2017-05-31T13:46:19.676Z,24.90
2017-05-31T13:48:46.390Z,24.70
2017-05-31T13:51:13.162Z,24.60
2017-05-31T13:53:39.862Z,24.20
2017-05-31T13:56:06.581Z,24.00
2017-05-31T13:58:33.315Z,23.90
2017-05-31T14:01:00.018Z,23.70
2017-05-31T14:03:26.780Z,23.30
2017-05-31T14:05:53.506Z,23.20
2017-05-31T14:08:20.246Z,22.80
2017-05-31T14:10:47.023Z,22.80
2017-05-31T14:13:13.714Z,23.10
2017-05-31T14:15:40.406Z,23.50
2017-05-31T14:18:07.210Z,23.60
2017-05-31T14:20:33.906Z,23.00
2017-05-31T14:23:00.656Z,23.20
2017-05-31T14:25:27.379Z,23.10
2017-05-31T14:27:54.065Z,23.50
2017-05-31T14:30:20.798Z,24.60
2017-05-31T14:32:47.554Z,24.80
2017-05-31T14:35:14.254Z,25.40
2017-05-31T14:37:40.961Z,25.90
2017-05-31T14:40:07.704Z,26.40
2017-05-31T14:42:34.770Z,27.10
2017-05-31T14:45:01.518Z,27.10
2017-05-31T14:47:28.274Z,27.30
2017-05-31T14:49:55.014Z,27.70
2017-05-31T14:52:21.771Z,27.70
2017-05-31T14:54:48.484Z,27.10
2017-05-31T14:57:15.190Z,27.50
2017-05-31T14:59:42.085Z,27.80
2017-05-31T15:02:08.849Z,28.30
2017-05-31T15:04:35.550Z,27.60
2017-05-31T15:07:02.282Z,27.90
2017-05-31T15:09:29.046Z,27.40
2017-05-31T15:11:55.734Z,27.40
2017-05-31T15:14:22.490Z,27.30
2017-05-31T15:16:49.224Z,26.90
2017-05-31T15:19:15.925Z,26.80
2017-05-31T15:21:42.618Z,27.20
2017-05-31T15:24:09.346Z,26.90
2017-05-31T15:26:36.061Z,26.80
2017-05-31T15:29:02.814Z,27.00
2017-05-31T15:31:29.518Z,26.80
2017-05-31T15:33:56.206Z,26.40
2017-05-31T15:36:22.927Z,26.30
2017-05-31T15:38:49.695Z,26.20
2017-05-31T15:41:16.386Z,26.10
2017-05-31T15:43:43.079Z,25.60
2017-05-31T15:46:09.827Z,25.30
2017-05-31T15:48:36.545Z,25.00
2017-05-31T15:51:03.274Z,25.10
2017-05-31T15:53:30.019Z,24.90
2017-05-31T15:55:56.705Z,24.30
2017-05-31T15:58:23.411Z,24.50
2017-05-31T16:00:50.131Z,24.50
2017-05-31T16:03:16.837Z,24.10
2017-05-31T16:05:43.598Z,24.10
2017-05-31T16:08:10.287Z,24.20
2017-05-31T16:10:36.979Z,24.20
2017-05-31T16:13:03.723Z,24.10
2017-05-31T16:15:30.431Z,23.90
2017-05-31T16:17:57.184Z,24.20
2017-05-31T16:20:23.918Z,24.10
2017-05-31T16:22:50.610Z,23.90
2017-05-31T16:25:17.294Z,23.80
2017-05-31T16:27:44.020Z,23.80
2017-05-31T16:30:10.719Z,23.90
2017-05-31T16:32:37.449Z,23.90
2017-05-31T16:35:04.147Z,24.10
2017-05-31T16:37:30.922Z,23.90
2017-05-31T16:39:57.610Z,24.00
2017-05-31T16:42:24.333Z,24.00
2017-05-31T16:44:51.062Z,23.80
2017-05-31T16:47:17.862Z,23.80
2017-05-31T16:49:44.591Z,23.70
2017-05-31T16:52:11.334Z,23.80
2017-05-31T16:54:38.026Z,23.70
2017-05-31T16:57:04.718Z,23.70
2017-05-31T16:59:31.453Z,23.70
2017-05-31T17:01:58.146Z,23.60
2017-05-31T17:04:24.897Z,23.50
2017-05-31T17:06:51.651Z,23.50
2017-05-31T17:09:18.346Z,23.50
2017-05-31T17:11:45.038Z,23.60
2017-05-31T17:14:11.790Z,23.70
2017-05-31T17:16:38.479Z,23.70
2017-05-31T17:19:05.174Z,23.50
2017-05-31T17:21:31.904Z,23.40
2017-05-31T17:23:58.648Z,23.20
2017-05-31T17:26:25.377Z,23.10
2017-05-31T17:28:52.071Z,23.00
2017-05-31T17:31:18.794Z,23.00
2017-05-31T17:33:45.490Z,22.90
2017-05-31T17:36:12.222Z,22.80
2017-05-31T17:38:38.918Z,22.80
2017-05-31T17:41:05.614Z,22.70
2017-05-31T17:43:32.363Z,22.70
2017-05-31T17:45:59.086Z,22.80
2017-05-31T17:48:25.783Z,22.60
2017-05-31T17:50:52.506Z,22.60
2017-05-31T17:53:19.238Z,22.50
2017-05-31T17:55:45.942Z,22.50
2017-05-31T17:58:12.634Z,22.60
2017-05-31T18:00:39.378Z,22.60
2017-05-31T18:03:06.118Z,22.60
2017-05-31T18:05:32.867Z,22.50
2017-05-31T18:07:59.634Z,22.50
2017-05-31T18:10:26.326Z,22.50
2017-05-31T18:12:53.050Z,22.30
2017-05-31T18:15:19.793Z,22.30
2017-05-31T18:17:46.482Z,22.30
2017-05-31T18:20:13.205Z,22.20
2017-05-31T18:22:39.958Z,22.10
2017-05-31T18:25:06.663Z,22.00
2017-05-31T18:27:33.387Z,22.10
2017-05-31T18:30:00.238Z,22.10
2017-05-31T18:32:26.929Z,22.00
2017-05-31T18:34:53.618Z,22.00
2017-05-31T18:37:20.618Z,21.80
2017-05-31T18:39:47.349Z,21.80
2017-05-31T18:42:14.050Z,21.70
2017-05-31T18:44:40.793Z,21.60
2017-05-31T18:47:07.478Z,21.60
2017-05-31T18:49:34.191Z,21.60
2017-05-31T18:52:00.946Z,21.50
2017-05-31T18:54:27.646Z,21.40
2017-05-31T18:56:54.338Z,21.40
2017-05-31T18:59:21.082Z,21.30
2017-05-31T19:01:47.781Z,21.30
2017-05-31T19:04:14.478Z,21.20
2017-05-31T19:06:41.262Z,21.10
2017-05-31T19:09:07.962Z,21.10
2017-05-31T19:11:34.664Z,21.00
2017-05-31T19:14:01.423Z,20.90
2017-05-31T19:16:28.128Z,20.90
2017-05-31T19:18:54.831Z,20.90
2017-05-31T19:21:21.564Z,20.90
2017-05-31T19:23:48.326Z,20.80
2017-05-31T19:26:15.030Z,20.80
2017-05-31T19:28:41.738Z,20.70
2017-05-31T19:31:08.546Z,20.70
2017-05-31T19:33:35.290Z,20.70
2017-05-31T19:36:01.999Z,20.70
2017-05-31T19:38:28.706Z,20.60
2017-05-31T19:40:55.438Z,20.70
2017-05-31T19:43:22.150Z,20.60
2017-05-31T19:45:48.849Z,20.60
2017-05-31T19:48:15.575Z,20.50
2017-05-31T19:50:42.322Z,20.30
2017-05-31T19:53:09.017Z,20.30
2017-05-31T19:55:35.707Z,20.20
2017-05-31T19:58:02.475Z,20.20
2017-05-31T20:00:29.198Z,20.10
2017-05-31T20:02:55.925Z,20.00
2017-05-31T20:05:22.954Z,19.90
2017-05-31T20:07:49.722Z,19.90
2017-05-31T20:10:16.410Z,19.80
2017-05-31T20:12:43.098Z,19.70
2017-05-31T20:15:09.830Z,19.70
2017-05-31T20:17:36.522Z,19.60
2017-05-31T20:20:03.242Z,19.60
2017-05-31T20:22:30.004Z,19.50
2017-05-31T20:24:56.694Z,19.30
2017-05-31T20:27:23.386Z,19.20
2017-05-31T20:29:50.142Z,19.20
2017-05-31T20:32:16.837Z,19.20
2017-05-31T20:34:43.526Z,19.20
2017-05-31T20:37:10.275Z,19.00
2017-05-31T20:39:36.966Z,19.00
2017-05-31T20:42:03.672Z,18.70
2017-05-31T20:44:30.445Z,18.90
2017-05-31T20:46:57.147Z,18.70
2017-05-31T20:49:23.842Z,18.60
2017-05-31T20:51:50.579Z,18.50
2017-05-31T20:54:17.289Z,18.40
2017-05-31T20:56:43.994Z,18.30
2017-05-31T20:59:10.774Z,18.40
2017-05-31T21:01:37.474Z,18.40
2017-05-31T21:04:04.182Z,18.40
2017-05-31T21:06:30.919Z,18.50
2017-05-31T21:08:57.647Z,18.40
2017-05-31T21:11:24.375Z,18.30
2017-05-31T21:13:51.078Z,18.30
2017-05-31T21:16:17.766Z,18.30
2017-05-31T21:18:44.526Z,18.00
2017-05-31T21:21:11.218Z,17.70
2017-05-31T21:23:37.909Z,17.80
2017-05-31T21:26:04.679Z,17.70
2017-05-31T21:28:31.435Z,17.70
2017-05-31T21:30:58.126Z,17.80
2017-05-31T21:33:24.814Z,17.90
2017-05-31T21:35:51.557Z,17.90
2017-05-31T21:38:18.255Z,18.00
2017-05-31T21:40:44.955Z,18.00
2017-05-31T21:43:11.694Z,17.80
2017-05-31T21:45:38.386Z,17.90
2017-05-31T21:48:05.078Z,18.00
2017-05-31T21:50:31.810Z,17.90
2017-05-31T21:52:58.504Z,17.80
2017-05-31T21:55:25.198Z,17.80
2017-05-31T21:57:51.929Z,17.70
2017-05-31T22:00:18.621Z,17.80
2017-05-31T22:02:45.308Z,17.80
2017-05-31T22:05:12.030Z,17.80
2017-05-31T22:07:38.783Z,17.80
2017-05-31T22:10:05.515Z,17.70
2017-05-31T22:12:32.212Z,17.40
2017-05-31T22:14:58.982Z,17.30
2017-05-31T22:17:25.707Z,17.40
2017-05-31T22:19:52.394Z,17.50
2017-05-31T22:22:19.122Z,17.50
2017-05-31T22:24:45.806Z,17.40
2017-05-31T22:27:12.493Z,17.40
2017-05-31T22:29:39.216Z,17.30
2017-05-31T22:32:05.944Z,17.30
2017-05-31T22:34:32.647Z,17.30
2017-05-31T22:36:59.403Z,17.20
2017-05-31T22:39:26.089Z,17.20
2017-05-31T22:41:52.783Z,17.10
2017-05-31T22:44:19.518Z,17.00
2017-05-31T22:46:46.210Z,16.90
2017-05-31T22:49:12.895Z,16.90
2017-05-31T22:51:39.618Z,16.80
2017-05-31T22:54:06.354Z,16.90
2017-05-31T22:56:33.098Z,16.90
2017-05-31T22:58:59.794Z,16.90
2017-05-31T23:01:26.489Z,16.90
2017-05-31T23:03:53.214Z,16.90
2017-05-31T23:06:19.984Z,16.80
2017-05-31T23:08:46.710Z,16.80
2017-05-31T23:11:13.398Z,16.80
2017-05-31T23:13:40.141Z,16.70
2017-05-31T23:16:06.867Z,16.70
2017-05-31T23:18:33.546Z,16.60
2017-05-31T23:21:00.255Z,16.60
2017-05-31T23:23:26.990Z,16.60
2017-05-31T23:25:53.678Z,16.60
2017-05-31T23:28:20.366Z,16.50
2017-05-31T23:30:47.097Z,16.60
2017-05-31T23:33:13.786Z,16.50
2017-05-31T23:35:40.470Z,16.50
2017-05-31T23:38:07.530Z,16.50
2017-05-31T23:40:34.266Z,16.40
2017-05-31T23:43:00.966Z,16.30
2017-05-31T23:45:27.690Z,16.30
2017-05-31T23:47:54.382Z,16.30
2017-05-31T23:50:21.118Z,16.30
2017-05-31T23:52:47.798Z,16.20
2017-05-31T23:55:14.492Z,16.20
2017-05-31T23:57:41.210Z,16.20
